Revolution — WDD2974 — position and weather

sailwx.info

Track history (hours):
 
Tides and Currents Weather Stations Pressure Air Temp Water Temp Dewpoint Dewpoint Depression Visibility Wind Speed Wind Dir Waves Ship Positions

Revolution

Owner: AMNAV Maritime Corporation, Oakland, CA. More information available from US FCC via Universal Licensing System and Coast Guard Vessel Documentation Center.

Last reported at 2018-Jan-18 16:00 UTC. Time now 2018-Jan-18 16:16 UTC.
Position N 37°49' W 122°19'.

Length 24 m; draft 4.9 m.

Type: Tug. MMSI: 367122220.

Date/timePositionNaut miles runAvg speedWind from/ knotsBaromVisibWave heightAir tempDewpointWater temp
2018-Jan-18 16:00N 37°49' W 122°19'0 0.0
2018-Jan-18 15:29N 37°49' W 122°19'1 2.3
2018-Jan-18 15:00N 37°49' W 122°20'0 0.0
2018-Jan-18 14:30N 37°49' W 122°20'1 2.4
2018-Jan-18 14:00N 37°48' W 122°21'1 1.1
2018-Jan-18 13:30N 37°48' W 122°21'0 0.0
2018-Jan-18 13:00N 37°48' W 122°21'0 0.0
2018-Jan-18 12:30N 37°48' W 122°21'0 0.0
2018-Jan-18 11:59N 37°48' W 122°21'2 4.6
2018-Jan-18 11:30N 37°48' W 122°18'0 0.2
2018-Jan-18 11:00N 37°48' W 122°18'0 0.0
2018-Jan-18 10:31N 37°48' W 122°18'0 0.0
2018-Jan-18 10:00N 37°48' W 122°18'1 1.7
2018-Jan-18 09:31N 37°48' W 122°19'2 3.2
2018-Jan-18 09:00N 37°49' W 122°19'0 0.0
2018-Jan-18 08:30N 37°49' W 122°19'0 0.0
2018-Jan-18 08:01N 37°49' W 122°19'0 0.0
2018-Jan-18 07:31N 37°49' W 122°19'0 0.0
2018-Jan-18 07:01N 37°49' W 122°19'0 0.0
2018-Jan-18 06:30N 37°49' W 122°19'0 0.0
2018-Jan-18 06:00N 37°49' W 122°19'0 0.0
2018-Jan-18 05:30N 37°49' W 122°19'0 0.0
2018-Jan-18 05:00N 37°49' W 122°19'0 0.0
2018-Jan-18 04:31N 37°49' W 122°19'0 0.0
2018-Jan-18 04:00N 37°49' W 122°19'0 0.0
2018-Jan-18 03:31N 37°49' W 122°19'0 0.0
2018-Jan-18 02:59N 37°49' W 122°19'0 0.0
2018-Jan-18 02:30N 37°49' W 122°19'0 0.0
2018-Jan-18 02:00N 37°49' W 122°19'0 0.0
2018-Jan-18 01:30N 37°49' W 122°19'1 2.0
2018-Jan-18 01:00N 37°49' W 122°20'1 1.0
2018-Jan-18 00:01N 37°49' W 122°19'0 0.0
2018-Jan-17 23:58N 37°49' W 122°19'  
2018-Jan-12 15:00N 37°48' W 122°21'2 3.4
2018-Jan-12 14:30N 37°47' W 122°21'1 1.2
2018-Jan-12 14:00N 37°47' W 122°22'1 2.1
2018-Jan-12 13:30N 37°48' W 122°21'2 3.0
2018-Jan-12 13:00N 37°49' W 122°19'0 0.0
2018-Jan-12 12:30N 37°49' W 122°19'0 0.0
2018-Jan-12 12:00N 37°49' W 122°19'1 1.2
2018-Jan-12 11:30N 37°49' W 122°19'0 0.5
2018-Jan-12 11:00N 37°49' W 122°19'0 0.0
2018-Jan-12 10:30N 37°49' W 122°19'0 0.0
2018-Jan-12 10:00N 37°49' W 122°19'0 0.0
2018-Jan-12 09:30N 37°49' W 122°19'0 0.0
2018-Jan-12 09:00N 37°49' W 122°19'0 0.0
2018-Jan-12 08:30N 37°49' W 122°19'0 0.0
2018-Jan-12 08:00N 37°49' W 122°19'0 0.0
2018-Jan-12 07:30N 37°49' W 122°19'0 0.0
2018-Jan-12 07:00N 37°49' W 122°19'0 0.0
2018-Jan-12 06:28N 37°49' W 122°19'0 0.0
2018-Jan-12 06:00N 37°49' W 122°19'0 0.0
2018-Jan-12 05:30N 37°49' W 122°19'0 0.0
2018-Jan-12 05:00N 37°49' W 122°19'0 0.0
2018-Jan-12 04:30N 37°49' W 122°19'0 0.0
2018-Jan-12 04:00N 37°49' W 122°19'0 0.0
2018-Jan-12 03:30N 37°49' W 122°19'0 0.0
2018-Jan-12 03:00N 37°49' W 122°19'0 0.0
2018-Jan-12 02:29N 37°49' W 122°19'0 0.0
2018-Jan-12 02:00N 37°49' W 122°19'0 0.0
2018-Jan-12 01:30N 37°49' W 122°19'0 1.0
2018-Jan-12 01:00N 37°49' W 122°19'0 0.8
2018-Jan-12 00:30N 37°49' W 122°20'0 0.4
2018-Jan-12 00:00N 37°49' W 122°20'0 0.4
2018-Jan-11 23:30N 37°49' W 122°20'1 1.3
2018-Jan-11 23:00N 37°49' W 122°20'1 2.4
2018-Jan-11 22:30N 37°48' W 122°22'2 3.5
2018-Jan-11 22:00N 37°49' W 122°20'1 2.1
2018-Jan-11 21:30N 37°49' W 122°19'0 0.0
2018-Jan-11 21:00N 37°49' W 122°19'0 0.0
2018-Jan-11 20:30N 37°49' W 122°19'0 0.0
2018-Jan-11 20:00N 37°49' W 122°19'0 0.0
2018-Jan-11 19:29N 37°49' W 122°19'0 0.0
2018-Jan-11 19:00N 37°49' W 122°19'0 0.0
2018-Jan-11 18:30N 37°49' W 122°19'0 0.0
2018-Jan-11 17:59N 37°49' W 122°19'1 2.2
2018-Jan-11 17:30N 37°49' W 122°20'3 5.9
2018-Jan-11 17:00N 37°46' W 122°22'0 0.3
2018-Jan-11 16:29N 37°46' W 122°22'0 0.2
2018-Jan-11 16:00N 37°46' W 122°22'0 0.2
2018-Jan-11 15:30N 37°46' W 122°21'0 0.0
2018-Jan-11 15:00N 37°46' W 122°21'0 0.1
2018-Jan-11 14:30N 37°46' W 122°21'1 1.2
2018-Jan-11 14:00N 37°46' W 122°22'2 4.2
2018-Jan-11 13:30N 37°48' W 122°22'1 2.4
2018-Jan-11 13:00N 37°48' W 122°21'0 0.0
2018-Jan-11 12:29N 37°48' W 122°21'0 0.0
2018-Jan-11 12:00N 37°48' W 122°21'0 0.0
2018-Jan-11 11:30N 37°48' W 122°21'0 0.0
2018-Jan-11 11:00N 37°48' W 122°21'1 2.6
2018-Jan-11 10:30N 37°48' W 122°19'1 2.0
2018-Jan-11 10:00N 37°48' W 122°18'0 0.4
2018-Jan-11 09:30N 37°48' W 122°18'1 1.7
2018-Jan-11 09:00N 37°48' W 122°19'1 2.8
2018-Jan-11 08:30N 37°49' W 122°20'1 1.8
2018-Jan-11 08:00N 37°49' W 122°19'0 0.0
2018-Jan-11 07:30N 37°49' W 122°19'0 0.0
2018-Jan-11 07:00N 37°49' W 122°19'0 0.0
2018-Jan-11 06:30N 37°49' W 122°19'0 0.0
2018-Jan-11 06:00N 37°49' W 122°19'0 0.0
2018-Jan-11 05:30N 37°49' W 122°19'0 0.0
2018-Jan-11 05:00N 37°49' W 122°19'0 0.0
2018-Jan-11 04:30N 37°49' W 122°19'0 0.0
2018-Jan-11 04:00N 37°49' W 122°19'0 0.0
2018-Jan-11 03:30N 37°49' W 122°19'0 0.0
2018-Jan-11 03:00N 37°49' W 122°19'2 3.2
2018-Jan-11 02:30N 37°48' W 122°19'1 1.1
2018-Jan-11 02:01N 37°48' W 122°19'0 0.2
2018-Jan-11 01:30N 37°48' W 122°19'1 2.8
2018-Jan-11 01:00N 37°48' W 122°21'1 2.3
2018-Jan-11 00:30N 37°48' W 122°22'2 3.9
2018-Jan-11 00:00N 37°48' W 122°20'0 0.2
2018-Jan-10 23:30N 37°48' W 122°19'2 3.3
2018-Jan-10 23:00N 37°48' W 122°17'2 3.1
2018-Jan-10 22:30N 37°48' W 122°19'2 4.6
2018-Jan-10 22:00N 37°48' W 122°22'3 5.8
2018-Jan-10 21:30N 37°49' W 122°19'0 0.0
2018-Jan-10 21:00N 37°49' W 122°19'0 0.0
2018-Jan-10 20:30N 37°49' W 122°19'0 0.0
2018-Jan-10 20:00N 37°49' W 122°19'0 0.0
2018-Jan-10 19:30N 37°49' W 122°19'0 0.0
2018-Jan-10 19:00N 37°49' W 122°19'0 0.0
2018-Jan-10 18:30N 37°49' W 122°19'0 0.0
2018-Jan-10 18:00N 37°49' W 122°19'0 0.1
2018-Jan-10 17:30N 37°49' W 122°19'0 0.0
2018-Jan-10 17:00N 37°49' W 122°19'0 0.0
2018-Jan-10 16:30N 37°49' W 122°19'0 0.0
2018-Jan-10 16:00N 37°49' W 122°19'0 0.6
2018-Jan-10 15:30N 37°49' W 122°19'2 3.5
2018-Jan-10 15:01N 37°48' W 122°18'0 0.4
2018-Jan-10 14:31N 37°48' W 122°18'0 0.8
2018-Jan-10 14:00N 37°48' W 122°18'0 0.0
2018-Jan-10 13:30N 37°48' W 122°18'0 0.0
2018-Jan-10 13:00N 37°48' W 122°18'0 0.9
2018-Jan-10 12:30N 37°48' W 122°19'3 6.1
2018-Jan-10 12:00N 37°48' W 122°22'2 4.3
2018-Jan-10 11:30N 37°49' W 122°20'1 2.0
2018-Jan-10 11:00N 37°49' W 122°19'0 0.0
2018-Jan-10 10:31N 37°49' W 122°19'0 0.0
2018-Jan-10 10:01N 37°49' W 122°19'0 0.0
2018-Jan-10 09:31N 37°49' W 122°19'0 0.0
2018-Jan-10 09:00N 37°49' W 122°19'0 0.0
2018-Jan-10 08:30N 37°49' W 122°19'0 0.0
2018-Jan-10 08:00N 37°49' W 122°19'0 0.0
2018-Jan-10 07:31N 37°49' W 122°19'0 0.0
2018-Jan-10 07:00N 37°49' W 122°19'0 0.0
2018-Jan-10 06:30N 37°49' W 122°19'0 0.0
2018-Jan-10 06:00N 37°49' W 122°19'0 0.0
2018-Jan-10 05:30N 37°49' W 122°19'0 0.0
2018-Jan-10 05:00N 37°49' W 122°19'0 0.0
2018-Jan-10 04:31N 37°49' W 122°19'0 0.0
2018-Jan-10 04:00N 37°49' W 122°19'0 0.0
2018-Jan-10 03:30N 37°49' W 122°19'1 1.0
2018-Jan-10 03:00N 37°49' W 122°19'0 0.4
2018-Jan-10 02:30N 37°49' W 122°19'0 0.5
2018-Jan-10 02:00N 37°49' W 122°20'1 2.0
2018-Jan-10 01:30N 37°49' W 122°19'0 0.0
2018-Jan-10 01:00N 37°49' W 122°19'0 0.0
2018-Jan-10 00:30N 37°49' W 122°19'0 0.0
2018-Jan-10 00:00N 37°49' W 122°19'0 0.0
2018-Jan-09 23:30N 37°49' W 122°19'0 0.0
2018-Jan-09 23:00N 37°49' W 122°19'0 0.0
2018-Jan-09 22:30N 37°49' W 122°19'0 0.0
2018-Jan-09 22:00N 37°49' W 122°19'0 0.0
2018-Jan-09 21:30N 37°49' W 122°19'0 0.0
2018-Jan-09 21:00N 37°49' W 122°19'0 0.0
2018-Jan-09 20:30N 37°49' W 122°19'0 0.0
2018-Jan-09 20:00N 37°49' W 122°19'0 0.0
2018-Jan-09 19:30N 37°49' W 122°19'0 0.0
2018-Jan-09 19:00N 37°49' W 122°19'0 0.0
2018-Jan-09 18:30N 37°49' W 122°19'0 0.0
2018-Jan-09 18:00N 37°49' W 122°19'0 0.0
2018-Jan-09 17:30N 37°49' W 122°19'0 0.0
2018-Jan-09 17:00N 37°49' W 122°19'0 0.0
2018-Jan-09 16:30N 37°49' W 122°19'0 0.0
2018-Jan-09 16:00N 37°49' W 122°19'0 0.0
2018-Jan-09 15:30N 37°49' W 122°19'0 0.0
2018-Jan-09 15:00N 37°49' W 122°19'0 0.0
2018-Jan-09 14:30N 37°49' W 122°19'0 0.0
2018-Jan-09 14:00N 37°49' W 122°19'0 0.0
2018-Jan-09 13:30N 37°49' W 122°19'0 0.0
2018-Jan-09 13:00N 37°49' W 122°19'0 0.0
2018-Jan-09 12:30N 37°49' W 122°19'0 0.0
2018-Jan-09 12:01N 37°49' W 122°19'0 0.0
2018-Jan-09 11:30N 37°49' W 122°19'1 1.8
2018-Jan-09 11:00N 37°49' W 122°20'2 3.7
2018-Jan-09 10:30N 37°48' W 122°18'0 0.2
2018-Jan-09 10:01N 37°48' W 122°18'0 0.0
2018-Jan-09 09:30N 37°48' W 122°18'1 2.7
2018-Jan-09 09:01N 37°48' W 122°20'2 3.2
2018-Jan-09 08:30N 37°49' W 122°19'0 0.0
2018-Jan-09 08:00N 37°49' W 122°19'0 0.0
2018-Jan-09 07:30N 37°49' W 122°19'0 0.0
2018-Jan-09 07:00N 37°49' W 122°19'0 0.0
2018-Jan-09 06:30N 37°49' W 122°19'0 0.0
2018-Jan-09 06:00N 37°49' W 122°19'0 0.0
2018-Jan-09 05:30N 37°49' W 122°19'0 0.0
2018-Jan-09 05:00N 37°49' W 122°19'0 0.0
2018-Jan-09 04:30N 37°49' W 122°19'0 0.0
2018-Jan-09 04:00N 37°49' W 122°19'1 2.7
2018-Jan-09 03:30N 37°49' W 122°20'4 8.8
2018-Jan-09 03:00N 37°52' W 122°24'3 5.8
2018-Jan-09 02:30N 37°54' W 122°22'1 1.6
2018-Jan-09 02:01N 37°55' W 122°22'0 0.0
2018-Jan-09 01:30N 37°55' W 122°22'0 0.9
2018-Jan-09 01:00N 37°55' W 122°22'0 0.7
2018-Jan-09 00:30N 37°55' W 122°22'0 0.2
2018-Jan-09 00:00N 37°55' W 122°22'0 0.0
2018-Jan-08 23:30N 37°55' W 122°22'1 2.4
2018-Jan-08 23:00N 37°54' W 122°23'0 0.0
2018-Jan-08 22:30N 37°54' W 122°23'0 0.0
2018-Jan-08 22:00N 37°54' W 122°23'0 0.0
2018-Jan-08 21:30N 37°54' W 122°23'0 0.0
2018-Jan-08 21:00N 37°54' W 122°23'0 0.0
2018-Jan-08 20:30N 37°54' W 122°23'1 2.6
2018-Jan-08 20:00N 37°55' W 122°22'1 2.2
2018-Jan-08 19:30N 37°54' W 122°23'2 3.5
2018-Jan-08 19:00N 37°55' W 122°25'1 2.7
2018-Jan-08 18:30N 37°54' W 122°24'4 7.2
2018-Jan-08 18:00N 37°51' W 122°23'4 7.4
2018-Jan-08 17:30N 37°49' W 122°19'0 0.0
2018-Jan-08 17:00N 37°49' W 122°19'0 0.0
2018-Jan-08 16:30N 37°49' W 122°19'0 0.0
2018-Jan-08 16:00N 37°49' W 122°19'  
Track history (hours):
 
Tides and Currents Weather Stations Pressure Air Temp Water Temp Dewpoint Dewpoint Depression Visibility Wind Speed Wind Dir Waves Ship Positions

Revolution

Owner: AMNAV Maritime Corporation, Oakland, CA. More information available from US FCC via Universal Licensing System and Coast Guard Vessel Documentation Center.

Last reported at 2018-Jan-18 16:00 UTC. Time now 2018-Jan-18 16:16 UTC.
Position N 37°49' W 122°19'.

Length 24 m; draft 4.9 m.

Type: Tug. MMSI: 367122220.

Date/timePositionNaut miles runAvg speedWind from/ knotsBaromVisibWave heightAir tempDewpointWater temp
2018-Jan-18 16:00N 37°49' W 122°19'0 0.0
2018-Jan-18 15:29N 37°49' W 122°19'1 2.3
2018-Jan-18 15:00N 37°49' W 122°20'0 0.0
2018-Jan-18 14:30N 37°49' W 122°20'1 2.4
2018-Jan-18 14:00N 37°48' W 122°21'1 1.1
2018-Jan-18 13:30N 37°48' W 122°21'0 0.0
2018-Jan-18 13:00N 37°48' W 122°21'0 0.0
2018-Jan-18 12:30N 37°48' W 122°21'0 0.0
2018-Jan-18 11:59N 37°48' W 122°21'2 4.6
2018-Jan-18 11:30N 37°48' W 122°18'0 0.2
2018-Jan-18 11:00N 37°48' W 122°18'0 0.0
2018-Jan-18 10:31N 37°48' W 122°18'0 0.0
2018-Jan-18 10:00N 37°48' W 122°18'1 1.7
2018-Jan-18 09:31N 37°48' W 122°19'2 3.2
2018-Jan-18 09:00N 37°49' W 122°19'0 0.0
2018-Jan-18 08:30N 37°49' W 122°19'0 0.0
2018-Jan-18 08:01N 37°49' W 122°19'0 0.0
2018-Jan-18 07:31N 37°49' W 122°19'0 0.0
2018-Jan-18 07:01N 37°49' W 122°19'0 0.0
2018-Jan-18 06:30N 37°49' W 122°19'0 0.0
2018-Jan-18 06:00N 37°49' W 122°19'0 0.0
2018-Jan-18 05:30N 37°49' W 122°19'0 0.0
2018-Jan-18 05:00N 37°49' W 122°19'0 0.0
2018-Jan-18 04:31N 37°49' W 122°19'0 0.0
2018-Jan-18 04:00N 37°49' W 122°19'0 0.0
2018-Jan-18 03:31N 37°49' W 122°19'0 0.0
2018-Jan-18 02:59N 37°49' W 122°19'0 0.0
2018-Jan-18 02:30N 37°49' W 122°19'0 0.0
2018-Jan-18 02:00N 37°49' W 122°19'0 0.0
2018-Jan-18 01:30N 37°49' W 122°19'1 2.0
2018-Jan-18 01:00N 37°49' W 122°20'1 1.0
2018-Jan-18 00:01N 37°49' W 122°19'0 0.0
2018-Jan-17 23:58N 37°49' W 122°19'  
2018-Jan-12 15:00N 37°48' W 122°21'2 3.4
2018-Jan-12 14:30N 37°47' W 122°21'1 1.2
2018-Jan-12 14:00N 37°47' W 122°22'1 2.1
2018-Jan-12 13:30N 37°48' W 122°21'2 3.0
2018-Jan-12 13:00N 37°49' W 122°19'0 0.0
2018-Jan-12 12:30N 37°49' W 122°19'0 0.0
2018-Jan-12 12:00N 37°49' W 122°19'1 1.2
2018-Jan-12 11:30N 37°49' W 122°19'0 0.5
2018-Jan-12 11:00N 37°49' W 122°19'0 0.0
2018-Jan-12 10:30N 37°49' W 122°19'0 0.0
2018-Jan-12 10:00N 37°49' W 122°19'0 0.0
2018-Jan-12 09:30N 37°49' W 122°19'0 0.0
2018-Jan-12 09:00N 37°49' W 122°19'0 0.0
2018-Jan-12 08:30N 37°49' W 122°19'0 0.0
2018-Jan-12 08:00N 37°49' W 122°19'0 0.0
2018-Jan-12 07:30N 37°49' W 122°19'0 0.0
2018-Jan-12 07:00N 37°49' W 122°19'0 0.0
2018-Jan-12 06:28N 37°49' W 122°19'0 0.0
2018-Jan-12 06:00N 37°49' W 122°19'0 0.0
2018-Jan-12 05:30N 37°49' W 122°19'0 0.0
2018-Jan-12 05:00N 37°49' W 122°19'0 0.0
2018-Jan-12 04:30N 37°49' W 122°19'0 0.0
2018-Jan-12 04:00N 37°49' W 122°19'0 0.0
2018-Jan-12 03:30N 37°49' W 122°19'0 0.0
2018-Jan-12 03:00N 37°49' W 122°19'0 0.0
2018-Jan-12 02:29N 37°49' W 122°19'0 0.0
2018-Jan-12 02:00N 37°49' W 122°19'0 0.0
2018-Jan-12 01:30N 37°49' W 122°19'0 1.0
2018-Jan-12 01:00N 37°49' W 122°19'0 0.8
2018-Jan-12 00:30N 37°49' W 122°20'0 0.4
2018-Jan-12 00:00N 37°49' W 122°20'0 0.4
2018-Jan-11 23:30N 37°49' W 122°20'1 1.3
2018-Jan-11 23:00N 37°49' W 122°20'1 2.4
2018-Jan-11 22:30N 37°48' W 122°22'2 3.5
2018-Jan-11 22:00N 37°49' W 122°20'1 2.1
2018-Jan-11 21:30N 37°49' W 122°19'0 0.0
2018-Jan-11 21:00N 37°49' W 122°19'0 0.0
2018-Jan-11 20:30N 37°49' W 122°19'0 0.0
2018-Jan-11 20:00N 37°49' W 122°19'0 0.0
2018-Jan-11 19:29N 37°49' W 122°19'0 0.0
2018-Jan-11 19:00N 37°49' W 122°19'0 0.0
2018-Jan-11 18:30N 37°49' W 122°19'0 0.0
2018-Jan-11 17:59N 37°49' W 122°19'1 2.2
2018-Jan-11 17:30N 37°49' W 122°20'3 5.9
2018-Jan-11 17:00N 37°46' W 122°22'0 0.3
2018-Jan-11 16:29N 37°46' W 122°22'0 0.2
2018-Jan-11 16:00N 37°46' W 122°22'0 0.2
2018-Jan-11 15:30N 37°46' W 122°21'0 0.0
2018-Jan-11 15:00N 37°46' W 122°21'0 0.1
2018-Jan-11 14:30N 37°46' W 122°21'1 1.2
2018-Jan-11 14:00N 37°46' W 122°22'2 4.2
2018-Jan-11 13:30N 37°48' W 122°22'1 2.4
2018-Jan-11 13:00N 37°48' W 122°21'0 0.0
2018-Jan-11 12:29N 37°48' W 122°21'0 0.0
2018-Jan-11 12:00N 37°48' W 122°21'0 0.0
2018-Jan-11 11:30N 37°48' W 122°21'0 0.0
2018-Jan-11 11:00N 37°48' W 122°21'1 2.6
2018-Jan-11 10:30N 37°48' W 122°19'1 2.0
2018-Jan-11 10:00N 37°48' W 122°18'0 0.4
2018-Jan-11 09:30N 37°48' W 122°18'1 1.7
2018-Jan-11 09:00N 37°48' W 122°19'1 2.8
2018-Jan-11 08:30N 37°49' W 122°20'1 1.8
2018-Jan-11 08:00N 37°49' W 122°19'0 0.0
2018-Jan-11 07:30N 37°49' W 122°19'0 0.0
2018-Jan-11 07:00N 37°49' W 122°19'0 0.0
2018-Jan-11 06:30N 37°49' W 122°19'0 0.0
2018-Jan-11 06:00N 37°49' W 122°19'0 0.0
2018-Jan-11 05:30N 37°49' W 122°19'0 0.0
2018-Jan-11 05:00N 37°49' W 122°19'0 0.0
2018-Jan-11 04:30N 37°49' W 122°19'0 0.0
2018-Jan-11 04:00N 37°49' W 122°19'0 0.0
2018-Jan-11 03:30N 37°49' W 122°19'0 0.0
2018-Jan-11 03:00N 37°49' W 122°19'2 3.2
2018-Jan-11 02:30N 37°48' W 122°19'1 1.1
2018-Jan-11 02:01N 37°48' W 122°19'0 0.2
2018-Jan-11 01:30N 37°48' W 122°19'1 2.8
2018-Jan-11 01:00N 37°48' W 122°21'1 2.3
2018-Jan-11 00:30N 37°48' W 122°22'2 3.9
2018-Jan-11 00:00N 37°48' W 122°20'0 0.2
2018-Jan-10 23:30N 37°48' W 122°19'2 3.3
2018-Jan-10 23:00N 37°48' W 122°17'2 3.1
2018-Jan-10 22:30N 37°48' W 122°19'2 4.6
2018-Jan-10 22:00N 37°48' W 122°22'3 5.8
2018-Jan-10 21:30N 37°49' W 122°19'0 0.0
2018-Jan-10 21:00N 37°49' W 122°19'0 0.0
2018-Jan-10 20:30N 37°49' W 122°19'0 0.0
2018-Jan-10 20:00N 37°49' W 122°19'0 0.0
2018-Jan-10 19:30N 37°49' W 122°19'0 0.0
2018-Jan-10 19:00N 37°49' W 122°19'0 0.0
2018-Jan-10 18:30N 37°49' W 122°19'0 0.0
2018-Jan-10 18:00N 37°49' W 122°19'0 0.1
2018-Jan-10 17:30N 37°49' W 122°19'0 0.0
2018-Jan-10 17:00N 37°49' W 122°19'0 0.0
2018-Jan-10 16:30N 37°49' W 122°19'0 0.0
2018-Jan-10 16:00N 37°49' W 122°19'0 0.6
2018-Jan-10 15:30N 37°49' W 122°19'2 3.5
2018-Jan-10 15:01N 37°48' W 122°18'0 0.4
2018-Jan-10 14:31N 37°48' W 122°18'0 0.8
2018-Jan-10 14:00N 37°48' W 122°18'0 0.0
2018-Jan-10 13:30N 37°48' W 122°18'0 0.0
2018-Jan-10 13:00N 37°48' W 122°18'0 0.9
2018-Jan-10 12:30N 37°48' W 122°19'3 6.1
2018-Jan-10 12:00N 37°48' W 122°22'2 4.3
2018-Jan-10 11:30N 37°49' W 122°20'1 2.0
2018-Jan-10 11:00N 37°49' W 122°19'0 0.0
2018-Jan-10 10:31N 37°49' W 122°19'0 0.0
2018-Jan-10 10:01N 37°49' W 122°19'0 0.0
2018-Jan-10 09:31N 37°49' W 122°19'0 0.0
2018-Jan-10 09:00N 37°49' W 122°19'0 0.0
2018-Jan-10 08:30N 37°49' W 122°19'0 0.0
2018-Jan-10 08:00N 37°49' W 122°19'0 0.0
2018-Jan-10 07:31N 37°49' W 122°19'0 0.0
2018-Jan-10 07:00N 37°49' W 122°19'0 0.0
2018-Jan-10 06:30N 37°49' W 122°19'0 0.0
2018-Jan-10 06:00N 37°49' W 122°19'0 0.0
2018-Jan-10 05:30N 37°49' W 122°19'0 0.0
2018-Jan-10 05:00N 37°49' W 122°19'0 0.0
2018-Jan-10 04:31N 37°49' W 122°19'0 0.0
2018-Jan-10 04:00N 37°49' W 122°19'0 0.0
2018-Jan-10 03:30N 37°49' W 122°19'1 1.0
2018-Jan-10 03:00N 37°49' W 122°19'0 0.4
2018-Jan-10 02:30N 37°49' W 122°19'0 0.5
2018-Jan-10 02:00N 37°49' W 122°20'1 2.0
2018-Jan-10 01:30N 37°49' W 122°19'0 0.0
2018-Jan-10 01:00N 37°49' W 122°19'0 0.0
2018-Jan-10 00:30N 37°49' W 122°19'0 0.0
2018-Jan-10 00:00N 37°49' W 122°19'0 0.0
2018-Jan-09 23:30N 37°49' W 122°19'0 0.0
2018-Jan-09 23:00N 37°49' W 122°19'0 0.0
2018-Jan-09 22:30N 37°49' W 122°19'0 0.0
2018-Jan-09 22:00N 37°49' W 122°19'0 0.0
2018-Jan-09 21:30N 37°49' W 122°19'0 0.0
2018-Jan-09 21:00N 37°49' W 122°19'0 0.0
2018-Jan-09 20:30N 37°49' W 122°19'0 0.0
2018-Jan-09 20:00N 37°49' W 122°19'0 0.0
2018-Jan-09 19:30N 37°49' W 122°19'0 0.0
2018-Jan-09 19:00N 37°49' W 122°19'0 0.0
2018-Jan-09 18:30N 37°49' W 122°19'0 0.0
2018-Jan-09 18:00N 37°49' W 122°19'0 0.0
2018-Jan-09 17:30N 37°49' W 122°19'0 0.0
2018-Jan-09 17:00N 37°49' W 122°19'0 0.0
2018-Jan-09 16:30N 37°49' W 122°19'0 0.0
2018-Jan-09 16:00N 37°49' W 122°19'0 0.0
2018-Jan-09 15:30N 37°49' W 122°19'0 0.0
2018-Jan-09 15:00N 37°49' W 122°19'0 0.0
2018-Jan-09 14:30N 37°49' W 122°19'0 0.0
2018-Jan-09 14:00N 37°49' W 122°19'0 0.0
2018-Jan-09 13:30N 37°49' W 122°19'0 0.0
2018-Jan-09 13:00N 37°49' W 122°19'0 0.0
2018-Jan-09 12:30N 37°49' W 122°19'0 0.0
2018-Jan-09 12:01N 37°49' W 122°19'0 0.0
2018-Jan-09 11:30N 37°49' W 122°19'1 1.8
2018-Jan-09 11:00N 37°49' W 122°20'2 3.7
2018-Jan-09 10:30N 37°48' W 122°18'0 0.2
2018-Jan-09 10:01N 37°48' W 122°18'0 0.0
2018-Jan-09 09:30N 37°48' W 122°18'1 2.7
2018-Jan-09 09:01N 37°48' W 122°20'2 3.2
2018-Jan-09 08:30N 37°49' W 122°19'0 0.0
2018-Jan-09 08:00N 37°49' W 122°19'0 0.0
2018-Jan-09 07:30N 37°49' W 122°19'0 0.0
2018-Jan-09 07:00N 37°49' W 122°19'0 0.0
2018-Jan-09 06:30N 37°49' W 122°19'0 0.0
2018-Jan-09 06:00N 37°49' W 122°19'0 0.0
2018-Jan-09 05:30N 37°49' W 122°19'0 0.0
2018-Jan-09 05:00N 37°49' W 122°19'0 0.0
2018-Jan-09 04:30N 37°49' W 122°19'0 0.0
2018-Jan-09 04:00N 37°49' W 122°19'1 2.7
2018-Jan-09 03:30N 37°49' W 122°20'4 8.8
2018-Jan-09 03:00N 37°52' W 122°24'3 5.8
2018-Jan-09 02:30N 37°54' W 122°22'1 1.6
2018-Jan-09 02:01N 37°55' W 122°22'0 0.0
2018-Jan-09 01:30N 37°55' W 122°22'0 0.9
2018-Jan-09 01:00N 37°55' W 122°22'0 0.7
2018-Jan-09 00:30N 37°55' W 122°22'0 0.2
2018-Jan-09 00:00N 37°55' W 122°22'0 0.0
2018-Jan-08 23:30N 37°55' W 122°22'1 2.4
2018-Jan-08 23:00N 37°54' W 122°23'0 0.0
2018-Jan-08 22:30N 37°54' W 122°23'0 0.0
2018-Jan-08 22:00N 37°54' W 122°23'0 0.0
2018-Jan-08 21:30N 37°54' W 122°23'0 0.0
2018-Jan-08 21:00N 37°54' W 122°23'0 0.0
2018-Jan-08 20:30N 37°54' W 122°23'1 2.6
2018-Jan-08 20:00N 37°55' W 122°22'1 2.2
2018-Jan-08 19:30N 37°54' W 122°23'2 3.5
2018-Jan-08 19:00N 37°55' W 122°25'1 2.7
2018-Jan-08 18:30N 37°54' W 122°24'4 7.2
2018-Jan-08 18:00N 37°51' W 122°23'4 7.4
2018-Jan-08 17:30N 37°49' W 122°19'0 0.0
2018-Jan-08 17:00N 37°49' W 122°19'0 0.0
2018-Jan-08 16:30N 37°49' W 122°19'0 0.0
2018-Jan-08 16:00N 37°49' W 122°19'  

Dump ship's entire track history